Terminal Aerodrome Forecast
Issued by NWS

Home | Current Version | Previous Version | Text Only | Print | Product List | Glossary On
Versions: 1 2 3 4 5 6 7 8 9 10 11 12 13 14 15 16
716
FTUS46 KPDT 270201 AAA
TAFYKM
TAF AMD
KYKM 270201Z 2702/2724 VRB04KT P6SM -SHRA SCT018 BKN025 OVC035
     FM270600 25005KT P6SM FEW060 BKN100
     FM271200 27006KT 5SM BR SCT100
     FM271900 27010KT P6SM SCT090=

USA.gov is the U.S. government's official web portal to all federal, state and local government web resources and services.